Nara, Japan
Current Conditions -  °F | °C
As of 5:00 PM on Monday 20 Oct 2014 (Local Time) from RJOO Reporting Station
Rain Showers Rain Showers  
Wind Chill: 66°   Ceiling: 3500
Heat Index: 66°   Visibility: 4mi
Dew Point: 63°   Wind: 5mph
Humidity: 88%   Direction: 80°E
Pressure: 30.12"   Gusts: NA
Location:  34.69°N, 135.83°E
Report Text: RJOO 200800Z 08004KT 030V130 7000 SHRA BR FEW003 SCT010 FEW025CB BKN035 19/17 Q1020
Loading
Personal Weather Stations






























Interactive Weather Map
Tropical Storm Tracking
New forecast layout! Learn more

10-Day Weather Forecast

Advertisements
Track Severe Weather on mobile